sensor_id;sensor_type;location;lat;lon;timestamp;temperature;humidity
3488;DHT22;38546;48.170;11.724;2023-06-10T00:02:32;16.40;99.90
3488;DHT22;38546;48.170;11.724;2023-06-10T00:05:21;16.40;99.90
3488;DHT22;38546;48.170;11.724;2023-06-10T00:08:11;16.40;99.90
3488;DHT22;38546;48.170;11.724;2023-06-10T00:11:00;16.30;99.90
3488;DHT22;38546;48.170;11.724;2023-06-10T00:13:49;16.40;99.90
3488;DHT22;38546;48.170;11.724;2023-06-10T00:16:39;16.40;99.90
3488;DHT22;38546;48.170;11.724;2023-06-10T00:19:29;16.50;99.90
3488;DHT22;38546;48.170;11.724;2023-06-10T00:22:21;16.50;99.90
3488;DHT22;38546;48.170;11.724;2023-06-10T00:25:11;16.50;99.90
3488;DHT22;38546;48.170;11.724;2023-06-10T00:28:01;16.50;99.90
3488;DHT22;38546;48.170;11.724;2023-06-10T00:30:50;16.40;99.90
3488;DHT22;38546;48.170;11.724;2023-06-10T00:33:40;16.30;99.90
3488;DHT22;38546;48.170;11.724;2023-06-10T00:36:29;16.30;99.90
3488;DHT22;38546;48.170;11.724;2023-06-10T00:39:19;15.90;99.90
3488;DHT22;38546;48.170;11.724;2023-06-10T00:42:09;15.80;99.90
3488;DHT22;38546;48.170;11.724;2023-06-10T00:44:59;15.70;99.90
3488;DHT22;38546;48.170;11.724;2023-06-10T00:47:48;15.70;99.90
3488;DHT22;38546;48.170;11.724;2023-06-10T00:50:38;15.90;99.90
3488;DHT22;38546;48.170;11.724;2023-06-10T00:53:28;15.90;99.90
3488;DHT22;38546;48.170;11.724;2023-06-10T00:56:18;15.90;99.90
3488;DHT22;38546;48.170;11.724;2023-06-10T00:59:07;15.80;99.90
3488;DHT22;38546;48.170;11.724;2023-06-10T01:01:57;15.80;99.90
3488;DHT22;38546;48.170;11.724;2023-06-10T01:04:46;15.80;99.90
3488;DHT22;38546;48.170;11.724;2023-06-10T01:09:41;15.70;99.90
3488;DHT22;38546;48.170;11.724;2023-06-10T01:13:07;15.40;99.90
3488;DHT22;38546;48.170;11.724;2023-06-10T01:16:00;15.30;99.90
3488;DHT22;38546;48.170;11.724;2023-06-10T01:18:50;15.10;99.90
3488;DHT22;38546;48.170;11.724;2023-06-10T01:21:41;15.10;99.90
3488;DHT22;38546;48.170;11.724;2023-06-10T01:24:31;15.00;99.90
3488;DHT22;38546;48.170;11.724;2023-06-10T01:27:24;15.00;99.90
3488;DHT22;38546;48.170;11.724;2023-06-10T01:30:23;15.20;99.90
3488;DHT22;38546;48.170;11.724;2023-06-10T01:33:25;15.10;99.90
3488;DHT22;38546;48.170;11.724;2023-06-10T01:36:17;15.10;99.90
3488;DHT22;38546;48.170;11.724;2023-06-10T01:39:09;15.20;99.90
3488;DHT22;38546;48.170;11.724;2023-06-10T01:42:00;15.20;99.90
3488;DHT22;38546;48.170;11.724;2023-06-10T01:44:51;15.20;99.90
3488;DHT22;38546;48.170;11.724;2023-06-10T01:47:40;15.20;99.90
3488;DHT22;38546;48.170;11.724;2023-06-10T01:50:30;15.10;99.90
3488;DHT22;38546;48.170;11.724;2023-06-10T01:53:19;15.10;99.90
3488;DHT22;38546;48.170;11.724;2023-06-10T01:56:08;15.10;99.90
3488;DHT22;38546;48.170;11.724;2023-06-10T01:58:57;15.10;99.90
3488;DHT22;38546;48.170;11.724;2023-06-10T02:01:48;15.10;99.90
3488;DHT22;38546;48.170;11.724;2023-06-10T02:04:37;15.00;99.90
3488;DHT22;38546;48.170;11.724;2023-06-10T02:07:27;15.00;99.90
3488;DHT22;38546;48.170;11.724;2023-06-10T02:10:16;15.00;99.90
3488;DHT22;38546;48.170;11.724;2023-06-10T02:13:06;15.00;99.90
3488;DHT22;38546;48.170;11.724;2023-06-10T02:15:55;15.00;99.90
3488;DHT22;38546;48.170;11.724;2023-06-10T02:18:45;15.00;99.90
3488;DHT22;38546;48.170;11.724;2023-06-10T02:21:35;15.00;99.90
3488;DHT22;38546;48.170;11.724;2023-06-10T02:24:24;14.90;99.90
3488;DHT22;38546;48.170;11.724;2023-06-10T02:27:18;14.90;99.90
3488;DHT22;38546;48.170;11.724;2023-06-10T02:30:08;14.90;99.90
3488;DHT22;38546;48.170;11.724;2023-06-10T02:32:59;14.90;99.90
3488;DHT22;38546;48.170;11.724;2023-06-10T02:35:48;14.80;99.90
3488;DHT22;38546;48.170;11.724;2023-06-10T02:38:38;14.80;99.90
3488;DHT22;38546;48.170;11.724;2023-06-10T02:41:27;14.70;99.90
3488;DHT22;38546;48.170;11.724;2023-06-10T02:44:18;14.70;99.90
3488;DHT22;38546;48.170;11.724;2023-06-10T02:47:07;14.70;99.90
3488;DHT22;38546;48.170;11.724;2023-06-10T02:49:56;14.70;99.90
3488;DHT22;38546;48.170;11.724;2023-06-10T02:52:45;14.70;99.90
3488;DHT22;38546;48.170;11.724;2023-06-10T02:55:34;14.70;99.90
3488;DHT22;38546;48.170;11.724;2023-06-10T02:58:24;14.60;99.90
3488;DHT22;38546;48.170;11.724;2023-06-10T03:01:15;14.60;99.90
3488;DHT22;38546;48.170;11.724;2023-06-10T03:04:05;14.60;99.90
3488;DHT22;38546;48.170;11.724;2023-06-10T03:06:55;14.50;99.90
3488;DHT22;38546;48.170;11.724;2023-06-10T03:09:44;14.70;99.90
3488;DHT22;38546;48.170;11.724;2023-06-10T03:12:33;14.70;99.90
3488;DHT22;38546;48.170;11.724;2023-06-10T03:15:22;14.50;99.90
3488;DHT22;38546;48.170;11.724;2023-06-10T03:18:13;14.50;99.90
3488;DHT22;38546;48.170;11.724;2023-06-10T03:21:03;14.50;99.90
3488;DHT22;38546;48.170;11.724;2023-06-10T03:23:52;14.40;99.90
3488;DHT22;38546;48.170;11.724;2023-06-10T03:26:42;14.40;99.90
3488;DHT22;38546;48.170;11.724;2023-06-10T03:29:31;14.40;99.90
3488;DHT22;38546;48.170;11.724;2023-06-10T03:32:21;14.30;99.90
3488;DHT22;38546;48.170;11.724;2023-06-10T03:35:11;14.40;99.90
3488;DHT22;38546;48.170;11.724;2023-06-10T03:38:01;14.40;99.90
3488;DHT22;38546;48.170;11.724;2023-06-10T03:40:50;14.40;99.90
3488;DHT22;38546;48.170;11.724;2023-06-10T03:43:40;14.40;99.90
3488;DHT22;38546;48.170;11.724;2023-06-10T03:46:29;14.40;99.90
3488;DHT22;38546;48.170;11.724;2023-06-10T03:49:18;14.40;99.90
3488;DHT22;38546;48.170;11.724;2023-06-10T03:52:07;14.40;99.90
3488;DHT22;38546;48.170;11.724;2023-06-10T03:54:57;14.40;99.90
3488;DHT22;38546;48.170;11.724;2023-06-10T03:57:46;14.50;99.90
3488;DHT22;38546;48.170;11.724;2023-06-10T04:00:36;14.50;99.90
3488;DHT22;38546;48.170;11.724;2023-06-10T04:03:30;14.60;99.90
3488;DHT22;38546;48.170;11.724;2023-06-10T04:06:20;14.60;99.90
3488;DHT22;38546;48.170;11.724;2023-06-10T04:09:11;14.60;99.90
3488;DHT22;38546;48.170;11.724;2023-06-10T04:12:02;14.70;99.90
3488;DHT22;38546;48.170;11.724;2023-06-10T04:14:52;14.80;99.90
3488;DHT22;38546;48.170;11.724;2023-06-10T04:17:41;14.80;99.90
3488;DHT22;38546;48.170;11.724;2023-06-10T04:20:31;15.00;99.90
3488;DHT22;38546;48.170;11.724;2023-06-10T04:23:21;15.10;99.90
3488;DHT22;38546;48.170;11.724;2023-06-10T04:26:10;15.10;99.90
3488;DHT22;38546;48.170;11.724;2023-06-10T04:29:01;14.90;99.90
3488;DHT22;38546;48.170;11.724;2023-06-10T04:31:50;14.70;99.90
3488;DHT22;38546;48.170;11.724;2023-06-10T04:34:39;14.80;99.90
3488;DHT22;38546;48.170;11.724;2023-06-10T04:37:29;14.90;99.90
3488;DHT22;38546;48.170;11.724;2023-06-10T04:40:18;15.00;99.90
3488;DHT22;38546;48.170;11.724;2023-06-10T04:43:08;15.10;99.90
3488;DHT22;38546;48.170;11.724;2023-06-10T04:45:57;15.20;99.90
3488;DHT22;38546;48.170;11.724;2023-06-10T04:48:46;15.30;99.90
3488;DHT22;38546;48.170;11.724;2023-06-10T04:51:36;15.30;99.90
3488;DHT22;38546;48.170;11.724;2023-06-10T04:54:27;15.40;99.90
3488;DHT22;38546;48.170;11.724;2023-06-10T04:57:16;15.40;99.90
3488;DHT22;38546;48.170;11.724;2023-06-10T05:00:06;15.40;99.90
3488;DHT22;38546;48.170;11.724;2023-06-10T05:02:57;15.30;99.90
3488;DHT22;38546;48.170;11.724;2023-06-10T05:05:46;15.40;99.90
3488;DHT22;38546;48.170;11.724;2023-06-10T05:08:35;15.40;99.90
3488;DHT22;38546;48.170;11.724;2023-06-10T05:11:24;15.50;99.90
3488;DHT22;38546;48.170;11.724;2023-06-10T05:14:14;15.60;99.90
3488;DHT22;38546;48.170;11.724;2023-06-10T05:17:08;15.70;99.90
3488;DHT22;38546;48.170;11.724;2023-06-10T05:19:57;15.80;99.90
3488;DHT22;38546;48.170;11.724;2023-06-10T05:22:46;15.90;99.90
3488;DHT22;38546;48.170;11.724;2023-06-10T05:25:35;16.00;99.90
3488;DHT22;38546;48.170;11.724;2023-06-10T05:28:25;16.20;99.90
3488;DHT22;38546;48.170;11.724;2023-06-10T05:31:14;16.20;99.90
3488;DHT22;38546;48.170;11.724;2023-06-10T05:34:04;16.40;99.90
3488;DHT22;38546;48.170;11.724;2023-06-10T05:36:54;16.50;99.90
3488;DHT22;38546;48.170;11.724;2023-06-10T05:39:43;16.50;99.90
3488;DHT22;38546;48.170;11.724;2023-06-10T05:42:32;16.70;99.90
3488;DHT22;38546;48.170;11.724;2023-06-10T05:45:21;16.90;99.90
3488;DHT22;38546;48.170;11.724;2023-06-10T05:48:10;17.00;99.90
3488;DHT22;38546;48.170;11.724;2023-06-10T05:50:59;17.30;99.90
3488;DHT22;38546;48.170;11.724;2023-06-10T05:53:48;17.00;99.90
3488;DHT22;38546;48.170;11.724;2023-06-10T05:56:36;17.00;99.90
3488;DHT22;38546;48.170;11.724;2023-06-10T05:59:25;17.20;99.90
3488;DHT22;38546;48.170;11.724;2023-06-10T06:02:14;17.50;99.90
3488;DHT22;38546;48.170;11.724;2023-06-10T06:05:04;17.90;99.90
3488;DHT22;38546;48.170;11.724;2023-06-10T06:07:54;17.90;99.90
3488;DHT22;38546;48.170;11.724;2023-06-10T06:10:43;18.20;99.90
3488;DHT22;38546;48.170;11.724;2023-06-10T06:13:32;18.20;99.90
3488;DHT22;38546;48.170;11.724;2023-06-10T06:16:21;18.40;99.90
3488;DHT22;38546;48.170;11.724;2023-06-10T06:19:10;18.50;99.90
3488;DHT22;38546;48.170;11.724;2023-06-10T06:21:59;18.50;99.90
3488;DHT22;38546;48.170;11.724;2023-06-10T06:24:48;18.30;99.90
3488;DHT22;38546;48.170;11.724;2023-06-10T06:27:39;18.30;99.90
3488;DHT22;38546;48.170;11.724;2023-06-10T06:30:28;18.20;99.90
3488;DHT22;38546;48.170;11.724;2023-06-10T06:33:17;18.20;99.90
3488;DHT22;38546;48.170;11.724;2023-06-10T06:36:06;18.20;99.90
3488;DHT22;38546;48.170;11.724;2023-06-10T06:38:55;18.20;99.90
3488;DHT22;38546;48.170;11.724;2023-06-10T06:41:45;18.40;99.90
3488;DHT22;38546;48.170;11.724;2023-06-10T06:44:34;18.50;99.90
3488;DHT22;38546;48.170;11.724;2023-06-10T06:47:23;18.70;99.90
3488;DHT22;38546;48.170;11.724;2023-06-10T06:50:12;19.00;99.90
3488;DHT22;38546;48.170;11.724;2023-06-10T06:53:01;19.50;99.90
3488;DHT22;38546;48.170;11.724;2023-06-10T06:55:50;19.80;99.90
3488;DHT22;38546;48.170;11.724;2023-06-10T06:58:39;20.10;99.90
3488;DHT22;38546;48.170;11.724;2023-06-10T07:01:30;20.30;99.90
3488;DHT22;38546;48.170;11.724;2023-06-10T07:04:19;20.50;99.90
3488;DHT22;38546;48.170;11.724;2023-06-10T07:07:10;20.80;99.90
3488;DHT22;38546;48.170;11.724;2023-06-10T07:09:59;21.00;99.90
3488;DHT22;38546;48.170;11.724;2023-06-10T07:12:48;21.10;99.90
3488;DHT22;38546;48.170;11.724;2023-06-10T07:15:38;20.70;99.90
3488;DHT22;38546;48.170;11.724;2023-06-10T07:18:27;21.10;99.90
3488;DHT22;38546;48.170;11.724;2023-06-10T07:21:16;21.40;99.90
3488;DHT22;38546;48.170;11.724;2023-06-10T07:24:06;21.20;99.90
3488;DHT22;38546;48.170;11.724;2023-06-10T07:26:55;21.60;99.90
3488;DHT22;38546;48.170;11.724;2023-06-10T07:29:44;21.80;99.90
3488;DHT22;38546;48.170;11.724;2023-06-10T07:32:33;22.00;99.90
3488;DHT22;38546;48.170;11.724;2023-06-10T07:35:22;21.70;99.90
3488;DHT22;38546;48.170;11.724;2023-06-10T07:38:12;21.60;99.90
3488;DHT22;38546;48.170;11.724;2023-06-10T07:41:01;21.30;99.90
3488;DHT22;38546;48.170;11.724;2023-06-10T07:43:51;21.60;99.90
3488;DHT22;38546;48.170;11.724;2023-06-10T07:46:43;21.90;99.90
3488;DHT22;38546;48.170;11.724;2023-06-10T07:49:32;22.30;99.90
3488;DHT22;38546;48.170;11.724;2023-06-10T07:52:21;22.20;99.90
3488;DHT22;38546;48.170;11.724;2023-06-10T07:55:10;21.70;99.90
3488;DHT22;38546;48.170;11.724;2023-06-10T07:57:59;21.70;99.90
3488;DHT22;38546;48.170;11.724;2023-06-10T08:00:48;21.60;99.90
3488;DHT22;38546;48.170;11.724;2023-06-10T08:03:37;21.80;99.90
3488;DHT22;38546;48.170;11.724;2023-06-10T08:06:26;22.00;99.90
3488;DHT22;38546;48.170;11.724;2023-06-10T08:09:16;22.20;99.90
3488;DHT22;38546;48.170;11.724;2023-06-10T08:12:06;22.40;99.90
3488;DHT22;38546;48.170;11.724;2023-06-10T08:14:56;22.60;99.90
3488;DHT22;38546;48.170;11.724;2023-06-10T08:17:45;22.80;99.90
3488;DHT22;38546;48.170;11.724;2023-06-10T08:20:35;22.70;99.90
3488;DHT22;38546;48.170;11.724;2023-06-10T08:23:24;22.40;99.90
3488;DHT22;38546;48.170;11.724;2023-06-10T08:26:13;22.40;99.90
3488;DHT22;38546;48.170;11.724;2023-06-10T08:29:02;22.50;99.90
3488;DHT22;38546;48.170;11.724;2023-06-10T08:31:51;22.40;99.90
3488;DHT22;38546;48.170;11.724;2023-06-10T08:34:41;22.50;99.90
3488;DHT22;38546;48.170;11.724;2023-06-10T08:37:30;22.70;99.90
3488;DHT22;38546;48.170;11.724;2023-06-10T08:40:19;23.00;99.90
3488;DHT22;38546;48.170;11.724;2023-06-10T08:43:46;22.90;99.90
3488;DHT22;38546;48.170;11.724;2023-06-10T08:46:41;22.90;99.90
3488;DHT22;38546;48.170;11.724;2023-06-10T08:49:34;23.00;99.90
3488;DHT22;38546;48.170;11.724;2023-06-10T08:52:29;22.70;99.90
3488;DHT22;38546;48.170;11.724;2023-06-10T08:55:30;22.30;99.90
3488;DHT22;38546;48.170;11.724;2023-06-10T08:58:22;22.50;99.90
3488;DHT22;38546;48.170;11.724;2023-06-10T09:01:12;22.40;99.90
3488;DHT22;38546;48.170;11.724;2023-06-10T09:04:02;22.00;99.90
3488;DHT22;38546;48.170;11.724;2023-06-10T09:06:52;21.90;99.90
3488;DHT22;38546;48.170;11.724;2023-06-10T09:09:43;22.10;99.90
3488;DHT22;38546;48.170;11.724;2023-06-10T09:12:36;22.00;99.90
3488;DHT22;38546;48.170;11.724;2023-06-10T09:15:27;22.10;99.90
3488;DHT22;38546;48.170;11.724;2023-06-10T09:18:16;22.10;99.90
3488;DHT22;38546;48.170;11.724;2023-06-10T09:21:06;22.70;99.90
3488;DHT22;38546;48.170;11.724;2023-06-10T09:23:55;23.30;99.90
3488;DHT22;38546;48.170;11.724;2023-06-10T09:26:45;23.20;99.90
3488;DHT22;38546;48.170;11.724;2023-06-10T09:29:52;23.20;99.90
3488;DHT22;38546;48.170;11.724;2023-06-10T09:32:44;23.40;99.90
3488;DHT22;38546;48.170;11.724;2023-06-10T09:35:34;23.40;99.90
3488;DHT22;38546;48.170;11.724;2023-06-10T09:38:23;23.60;99.90
3488;DHT22;38546;48.170;11.724;2023-06-10T09:41:18;23.10;99.90
3488;DHT22;38546;48.170;11.724;2023-06-10T09:44:18;24.10;99.90
3488;DHT22;38546;48.170;11.724;2023-06-10T09:47:08;23.80;99.90
3488;DHT22;38546;48.170;11.724;2023-06-10T09:49:58;24.30;99.90
3488;DHT22;38546;48.170;11.724;2023-06-10T09:52:48;24.40;99.90
3488;DHT22;38546;48.170;11.724;2023-06-10T09:55:38;24.30;99.90
3488;DHT22;38546;48.170;11.724;2023-06-10T09:58:38;24.50;99.90
3488;DHT22;38546;48.170;11.724;2023-06-10T10:01:29;24.60;99.90
3488;DHT22;38546;48.170;11.724;2023-06-10T10:04:24;23.30;99.90
3488;DHT22;38546;48.170;11.724;2023-06-10T10:07:14;23.40;99.90
3488;DHT22;38546;48.170;11.724;2023-06-10T10:10:04;24.10;99.90
3488;DHT22;38546;48.170;11.724;2023-06-10T10:12:55;24.50;99.90
3488;DHT22;38546;48.170;11.724;2023-06-10T10:15:45;24.90;99.90
3488;DHT22;38546;48.170;11.724;2023-06-10T10:18:35;25.70;99.90
3488;DHT22;38546;48.170;11.724;2023-06-10T10:21:38;25.90;99.90
3488;DHT22;38546;48.170;11.724;2023-06-10T10:24:35;25.90;99.90
3488;DHT22;38546;48.170;11.724;2023-06-10T10:27:35;25.20;99.90
3488;DHT22;38546;48.170;11.724;2023-06-10T10:30:27;25.00;99.90
3488;DHT22;38546;48.170;11.724;2023-06-10T10:33:40;25.90;99.90
3488;DHT22;38546;48.170;11.724;2023-06-10T10:36:38;24.20;99.90
3488;DHT22;38546;48.170;11.724;2023-06-10T10:39:28;23.80;99.90
3488;DHT22;38546;48.170;11.724;2023-06-10T10:42:18;24.30;99.90
3488;DHT22;38546;48.170;11.724;2023-06-10T10:45:09;23.90;99.90
3488;DHT22;38546;48.170;11.724;2023-06-10T10:48:08;24.30;99.90
3488;DHT22;38546;48.170;11.724;2023-06-10T10:51:01;24.70;99.90
3488;DHT22;38546;48.170;11.724;2023-06-10T10:54:10;25.10;99.90
3488;DHT22;38546;48.170;11.724;2023-06-10T10:57:37;25.80;99.90
3488;DHT22;38546;48.170;11.724;2023-06-10T11:00:43;24.60;99.90
3488;DHT22;38546;48.170;11.724;2023-06-10T11:03:42;24.60;99.90
3488;DHT22;38546;48.170;11.724;2023-06-10T11:06:33;25.50;99.90
3488;DHT22;38546;48.170;11.724;2023-06-10T11:09:27;26.10;99.90
3488;DHT22;38546;48.170;11.724;2023-06-10T11:12:22;26.20;99.90
3488;DHT22;38546;48.170;11.724;2023-06-10T11:15:13;26.90;99.90
3488;DHT22;38546;48.170;11.724;2023-06-10T11:22:20;27.60;99.90
3488;DHT22;38546;48.170;11.724;2023-06-10T11:25:13;27.10;98.00
3488;DHT22;38546;48.170;11.724;2023-06-10T11:28:17;26.20;99.00
3488;DHT22;38546;48.170;11.724;2023-06-10T11:31:18;25.60;99.80
3488;DHT22;38546;48.170;11.724;2023-06-10T11:34:11;26.30;99.80
3488;DHT22;38546;48.170;11.724;2023-06-10T11:37:02;26.80;99.60
3488;DHT22;38546;48.170;11.724;2023-06-10T11:39:56;27.50;99.00
3488;DHT22;38546;48.170;11.724;2023-06-10T11:42:46;27.00;98.40
3488;DHT22;38546;48.170;11.724;2023-06-10T11:45:35;26.90;97.80
3488;DHT22;38546;48.170;11.724;2023-06-10T11:48:25;27.20;97.60
3488;DHT22;38546;48.170;11.724;2023-06-10T11:51:17;25.60;96.90
3488;DHT22;38546;48.170;11.724;2023-06-10T11:54:10;25.70;97.20
3488;DHT22;38546;48.170;11.724;2023-06-10T11:57:00;25.70;97.20
3488;DHT22;38546;48.170;11.724;2023-06-10T11:59:49;26.50;98.20
3488;DHT22;38546;48.170;11.724;2023-06-10T12:02:39;27.10;97.50
3488;DHT22;38546;48.170;11.724;2023-06-10T12:05:28;26.70;96.90
3488;DHT22;38546;48.170;11.724;2023-06-10T12:08:17;26.20;96.10
3488;DHT22;38546;48.170;11.724;2023-06-10T12:11:07;26.70;96.70
3488;DHT22;38546;48.170;11.724;2023-06-10T12:13:57;27.10;96.90
3488;DHT22;38546;48.170;11.724;2023-06-10T12:16:49;27.60;96.40
3488;DHT22;38546;48.170;11.724;2023-06-10T12:19:40;28.00;96.20
3488;DHT22;38546;48.170;11.724;2023-06-10T12:22:43;25.70;95.50
3488;DHT22;38546;48.170;11.724;2023-06-10T12:25:32;25.20;98.20
3488;DHT22;38546;48.170;11.724;2023-06-10T12:28:22;25.70;98.40
3488;DHT22;38546;48.170;11.724;2023-06-10T12:31:12;26.30;99.90
3488;DHT22;38546;48.170;11.724;2023-06-10T12:34:09;26.20;98.80
3488;DHT22;38546;48.170;11.724;2023-06-10T12:36:58;26.30;99.60
3488;DHT22;38546;48.170;11.724;2023-06-10T12:39:51;24.70;99.90
3488;DHT22;38546;48.170;11.724;2023-06-10T12:42:43;24.30;99.90
3488;DHT22;38546;48.170;11.724;2023-06-10T12:45:34;24.70;99.90
3488;DHT22;38546;48.170;11.724;2023-06-10T12:48:25;24.30;99.90
3488;DHT22;38546;48.170;11.724;2023-06-10T12:51:14;23.30;99.90
3488;DHT22;38546;48.170;11.724;2023-06-10T12:54:04;23.40;99.90
3488;DHT22;38546;48.170;11.724;2023-06-10T12:56:54;23.20;99.90
3488;DHT22;38546;48.170;11.724;2023-06-10T12:59:43;23.50;99.90
3488;DHT22;38546;48.170;11.724;2023-06-10T13:02:39;23.70;99.90
3488;DHT22;38546;48.170;11.724;2023-06-10T13:05:28;23.80;99.90
3488;DHT22;38546;48.170;11.724;2023-06-10T13:08:18;23.40;99.90
3488;DHT22;38546;48.170;11.724;2023-06-10T13:11:08;23.50;99.90
3488;DHT22;38546;48.170;11.724;2023-06-10T13:13:57;23.00;99.90
3488;DHT22;38546;48.170;11.724;2023-06-10T13:16:47;23.70;99.90
3488;DHT22;38546;48.170;11.724;2023-06-10T13:19:36;23.70;99.90
3488;DHT22;38546;48.170;11.724;2023-06-10T13:22:27;23.80;99.90
3488;DHT22;38546;48.170;11.724;2023-06-10T13:25:16;23.90;99.90
3488;DHT22;38546;48.170;11.724;2023-06-10T13:28:05;23.50;99.90
3488;DHT22;38546;48.170;11.724;2023-06-10T13:30:55;24.00;99.90
3488;DHT22;38546;48.170;11.724;2023-06-10T13:33:44;23.70;99.90
3488;DHT22;38546;48.170;11.724;2023-06-10T13:36:34;24.10;99.90
3488;DHT22;38546;48.170;11.724;2023-06-10T13:39:24;24.20;99.90
3488;DHT22;38546;48.170;11.724;2023-06-10T13:42:14;24.60;99.90
3488;DHT22;38546;48.170;11.724;2023-06-10T13:45:05;24.90;99.90
3488;DHT22;38546;48.170;11.724;2023-06-10T13:47:55;24.20;99.90
3488;DHT22;38546;48.170;11.724;2023-06-10T13:50:44;23.60;99.90
3488;DHT22;38546;48.170;11.724;2023-06-10T13:53:34;23.80;99.90
3488;DHT22;38546;48.170;11.724;2023-06-10T13:56:24;23.90;99.90
3488;DHT22;38546;48.170;11.724;2023-06-10T13:59:14;23.70;99.90
3488;DHT22;38546;48.170;11.724;2023-06-10T14:02:04;23.70;99.90
3488;DHT22;38546;48.170;11.724;2023-06-10T14:04:53;23.90;99.90
3488;DHT22;38546;48.170;11.724;2023-06-10T14:07:43;24.20;99.90
3488;DHT22;38546;48.170;11.724;2023-06-10T14:10:32;24.30;99.90
3488;DHT22;38546;48.170;11.724;2023-06-10T14:13:22;24.40;99.90
3488;DHT22;38546;48.170;11.724;2023-06-10T14:16:11;24.30;99.90
3488;DHT22;38546;48.170;11.724;2023-06-10T14:19:00;24.30;99.90
3488;DHT22;38546;48.170;11.724;2023-06-10T14:21:49;24.60;99.90
3488;DHT22;38546;48.170;11.724;2023-06-10T14:24:39;24.90;99.90
3488;DHT22;38546;48.170;11.724;2023-06-10T14:27:28;25.40;99.90
3488;DHT22;38546;48.170;11.724;2023-06-10T14:30:17;25.10;99.90
3488;DHT22;38546;48.170;11.724;2023-06-10T14:33:07;24.50;99.90
3488;DHT22;38546;48.170;11.724;2023-06-10T14:35:56;23.80;99.90
3488;DHT22;38546;48.170;11.724;2023-06-10T14:38:46;24.00;99.90
3488;DHT22;38546;48.170;11.724;2023-06-10T14:41:35;24.20;99.90
3488;DHT22;38546;48.170;11.724;2023-06-10T14:44:24;24.40;99.90
3488;DHT22;38546;48.170;11.724;2023-06-10T14:47:13;24.60;99.90
3488;DHT22;38546;48.170;11.724;2023-06-10T14:50:03;24.80;99.90
3488;DHT22;38546;48.170;11.724;2023-06-10T14:52:52;24.00;99.90
3488;DHT22;38546;48.170;11.724;2023-06-10T14:55:42;24.50;99.90
3488;DHT22;38546;48.170;11.724;2023-06-10T14:58:31;24.50;99.90
3488;DHT22;38546;48.170;11.724;2023-06-10T15:01:21;24.50;99.90
3488;DHT22;38546;48.170;11.724;2023-06-10T15:04:10;24.40;99.90
3488;DHT22;38546;48.170;11.724;2023-06-10T15:06:59;24.70;99.90
3488;DHT22;38546;48.170;11.724;2023-06-10T15:09:48;24.70;99.90
3488;DHT22;38546;48.170;11.724;2023-06-10T15:12:37;24.50;99.90
3488;DHT22;38546;48.170;11.724;2023-06-10T15:15:27;24.60;99.90
3488;DHT22;38546;48.170;11.724;2023-06-10T15:18:17;24.50;99.90
3488;DHT22;38546;48.170;11.724;2023-06-10T15:21:06;24.30;99.90
3488;DHT22;38546;48.170;11.724;2023-06-10T15:23:55;24.00;99.90
3488;DHT22;38546;48.170;11.724;2023-06-10T15:26:44;24.30;99.90
3488;DHT22;38546;48.170;11.724;2023-06-10T15:29:34;24.00;99.90
3488;DHT22;38546;48.170;11.724;2023-06-10T15:32:23;23.60;99.90
3488;DHT22;38546;48.170;11.724;2023-06-10T15:35:13;23.30;99.90
3488;DHT22;38546;48.170;11.724;2023-06-10T15:38:03;23.50;99.90
3488;DHT22;38546;48.170;11.724;2023-06-10T15:40:52;23.60;99.90
3488;DHT22;38546;48.170;11.724;2023-06-10T15:43:42;23.40;99.90
3488;DHT22;38546;48.170;11.724;2023-06-10T15:46:32;23.40;99.90
3488;DHT22;38546;48.170;11.724;2023-06-10T15:49:22;23.00;99.90
3488;DHT22;38546;48.170;11.724;2023-06-10T15:52:12;23.30;99.90
3488;DHT22;38546;48.170;11.724;2023-06-10T15:55:02;23.60;99.90
3488;DHT22;38546;48.170;11.724;2023-06-10T15:57:51;23.50;99.90
3488;DHT22;38546;48.170;11.724;2023-06-10T16:00:40;23.40;99.90
3488;DHT22;38546;48.170;11.724;2023-06-10T16:03:29;23.70;99.90
3488;DHT22;38546;48.170;11.724;2023-06-10T16:06:18;23.40;99.90
3488;DHT22;38546;48.170;11.724;2023-06-10T16:09:08;23.50;99.90
3488;DHT22;38546;48.170;11.724;2023-06-10T16:11:57;23.40;99.90
3488;DHT22;38546;48.170;11.724;2023-06-10T16:14:46;23.50;99.90
3488;DHT22;38546;48.170;11.724;2023-06-10T16:17:36;23.80;99.90
3488;DHT22;38546;48.170;11.724;2023-06-10T16:20:26;23.30;99.90
3488;DHT22;38546;48.170;11.724;2023-06-10T16:23:15;23.20;99.90
3488;DHT22;38546;48.170;11.724;2023-06-10T16:26:05;23.60;99.90
3488;DHT22;38546;48.170;11.724;2023-06-10T16:28:54;23.30;99.90
3488;DHT22;38546;48.170;11.724;2023-06-10T16:31:43;22.80;99.90
3488;DHT22;38546;48.170;11.724;2023-06-10T16:34:32;22.80;99.90
3488;DHT22;38546;48.170;11.724;2023-06-10T16:37:21;22.70;99.90
3488;DHT22;38546;48.170;11.724;2023-06-10T16:40:11;22.70;99.90
3488;DHT22;38546;48.170;11.724;2023-06-10T16:43:00;22.60;99.90
3488;DHT22;38546;48.170;11.724;2023-06-10T16:45:49;22.70;99.90
3488;DHT22;38546;48.170;11.724;2023-06-10T16:48:39;22.90;99.90
3488;DHT22;38546;48.170;11.724;2023-06-10T16:51:27;23.00;99.90
3488;DHT22;38546;48.170;11.724;2023-06-10T16:54:17;23.40;99.90
3488;DHT22;38546;48.170;11.724;2023-06-10T16:57:06;23.60;99.90
3488;DHT22;38546;48.170;11.724;2023-06-10T16:59:56;23.40;99.90
3488;DHT22;38546;48.170;11.724;2023-06-10T17:02:44;23.00;99.90
3488;DHT22;38546;48.170;11.724;2023-06-10T17:05:33;22.80;99.90
3488;DHT22;38546;48.170;11.724;2023-06-10T17:08:22;22.50;99.90
3488;DHT22;38546;48.170;11.724;2023-06-10T17:11:11;22.50;99.90
3488;DHT22;38546;48.170;11.724;2023-06-10T17:14:00;22.50;99.90
3488;DHT22;38546;48.170;11.724;2023-06-10T17:16:50;21.90;99.90
3488;DHT22;38546;48.170;11.724;2023-06-10T17:19:39;21.70;99.90
3488;DHT22;38546;48.170;11.724;2023-06-10T17:22:29;21.70;99.90
3488;DHT22;38546;48.170;11.724;2023-06-10T17:25:18;21.80;99.90
3488;DHT22;38546;48.170;11.724;2023-06-10T17:28:07;21.80;99.90
3488;DHT22;38546;48.170;11.724;2023-06-10T17:30:56;21.60;99.90
3488;DHT22;38546;48.170;11.724;2023-06-10T17:33:45;21.90;99.90
3488;DHT22;38546;48.170;11.724;2023-06-10T17:36:34;22.00;99.90
3488;DHT22;38546;48.170;11.724;2023-06-10T17:39:23;22.00;99.90
3488;DHT22;38546;48.170;11.724;2023-06-10T17:42:12;22.00;99.90
3488;DHT22;38546;48.170;11.724;2023-06-10T17:45:01;21.80;99.90
3488;DHT22;38546;48.170;11.724;2023-06-10T17:47:50;21.80;99.90
3488;DHT22;38546;48.170;11.724;2023-06-10T17:50:40;21.70;99.90
3488;DHT22;38546;48.170;11.724;2023-06-10T17:53:29;21.90;99.90
3488;DHT22;38546;48.170;11.724;2023-06-10T17:56:18;22.00;99.90
3488;DHT22;38546;48.170;11.724;2023-06-10T17:59:07;22.00;99.90
3488;DHT22;38546;48.170;11.724;2023-06-10T18:01:56;22.00;99.90
3488;DHT22;38546;48.170;11.724;2023-06-10T18:04:45;21.80;99.90